createdAt,value
2017-03-25T00:00:26.290Z,0
2017-03-25T00:01:36.643Z,0
2017-03-25T00:02:46.981Z,0
2017-03-25T00:03:57.007Z,0
2017-03-25T00:05:07.350Z,0
2017-03-25T00:06:17.684Z,0
2017-03-25T00:07:27.734Z,0
2017-03-25T00:08:37.471Z,0
2017-03-25T00:09:47.548Z,0
2017-03-25T00:10:57.602Z,0
2017-03-25T00:12:08.011Z,0
2017-03-25T00:13:18.350Z,0
2017-03-25T00:14:28.395Z,0
2017-03-25T00:15:38.744Z,0
2017-03-25T00:16:49.079Z,0
2017-03-25T00:17:59.452Z,0
2017-03-25T00:19:09.807Z,0
2017-03-25T00:20:20.164Z,0
2017-03-25T00:21:30.529Z,0
2017-03-25T00:22:40.855Z,0
2017-03-25T00:23:50.892Z,0
2017-03-25T00:25:00.926Z,0
2017-03-25T00:26:11.270Z,0
2017-03-25T00:27:21.301Z,0
2017-03-25T00:28:31.645Z,0
2017-03-25T00:29:41.686Z,0
2017-03-25T00:30:52.036Z,0
2017-03-25T00:32:02.061Z,0
2017-03-25T00:33:12.086Z,0
2017-03-25T00:34:22.423Z,0
2017-03-25T00:35:32.783Z,0
2017-03-25T00:36:43.136Z,0
2017-03-25T00:37:52.861Z,0
2017-03-25T00:39:02.595Z,0
2017-03-25T00:40:12.934Z,0
2017-03-25T00:41:22.971Z,0
2017-03-25T00:42:33.016Z,0
2017-03-25T00:43:43.042Z,0
2017-03-25T00:44:53.646Z,0
2017-03-25T00:46:04.019Z,0
2017-03-25T00:47:14.068Z,0
2017-03-25T00:48:23.503Z,0
2017-03-25T00:49:33.840Z,0
2017-03-25T00:50:44.420Z,0
2017-03-25T00:51:54.484Z,0
2017-03-25T00:53:04.198Z,0
2017-03-25T00:54:14.230Z,0
2017-03-25T00:55:24.585Z,0
2017-03-25T00:56:34.910Z,0
2017-03-25T00:57:45.277Z,0
2017-03-25T00:58:55.285Z,0
2017-03-25T01:00:05.641Z,0
2017-03-25T01:01:15.986Z,0
2017-03-25T01:02:26.021Z,0
2017-03-25T01:03:36.377Z,0
2017-03-25T01:04:46.094Z,0
2017-03-25T01:05:56.110Z,0
2017-03-25T01:07:06.135Z,0
2017-03-25T01:08:16.460Z,0
2017-03-25T01:09:26.466Z,0
2017-03-25T01:10:36.793Z,0
2017-03-25T01:11:47.120Z,0
2017-03-25T01:12:57.155Z,0
2017-03-25T01:14:07.481Z,0
2017-03-25T01:15:17.817Z,0
2017-03-25T01:16:28.158Z,0
2017-03-25T01:17:38.181Z,0
2017-03-25T01:18:48.537Z,0
2017-03-25T01:19:58.582Z,0
2017-03-25T01:21:08.903Z,0
2017-03-25T01:22:18.925Z,0
2017-03-25T01:23:28.941Z,0
2017-03-25T01:24:39.274Z,0
2017-03-25T01:25:49.310Z,0
2017-03-25T01:26:59.352Z,0
2017-03-25T01:28:09.743Z,0
2017-03-25T01:29:20.083Z,0
2017-03-25T01:30:30.413Z,0
2017-03-25T01:31:40.429Z,0
2017-03-25T01:32:50.431Z,0
2017-03-25T01:34:00.758Z,0
2017-03-25T01:35:10.779Z,0
2017-03-25T01:36:20.806Z,0
2017-03-25T01:37:31.133Z,0
2017-03-25T01:38:41.463Z,0
2017-03-25T01:39:51.789Z,0
2017-03-25T01:41:02.146Z,0
2017-03-25T01:42:12.470Z,0
2017-03-25T01:43:22.788Z,0
2017-03-25T01:44:33.149Z,0
2017-03-25T01:45:43.505Z,0
2017-03-25T01:46:53.826Z,0
2017-03-25T01:48:03.847Z,0
2017-03-25T01:49:14.171Z,0
2017-03-25T01:50:23.581Z,0
2017-03-25T01:51:33.909Z,0
2017-03-25T01:52:44.235Z,0
2017-03-25T01:53:54.580Z,0
2017-03-25T01:55:04.923Z,0
2017-03-25T01:56:15.254Z,0
2017-03-25T01:57:25.584Z,0
2017-03-25T01:58:35.014Z,0
2017-03-25T01:59:45.026Z,0
2017-03-25T02:00:55.041Z,0
2017-03-25T02:02:05.368Z,0
2017-03-25T02:03:15.702Z,0
2017-03-25T02:04:26.073Z,0
2017-03-25T02:05:36.085Z,0
2017-03-25T02:06:45.789Z,0
2017-03-25T02:07:56.117Z,0
2017-03-25T02:09:06.464Z,0
2017-03-25T02:10:16.841Z,0
2017-03-25T02:11:26.870Z,0
2017-03-25T02:12:36.904Z,0
2017-03-25T02:13:46.966Z,0
2017-03-25T02:14:57.303Z,0
2017-03-25T02:16:07.318Z,0
2017-03-25T02:17:17.652Z,0
2017-03-25T02:18:27.991Z,0
2017-03-25T02:19:38.335Z,0
2017-03-25T02:20:48.361Z,0
2017-03-25T02:21:58.684Z,0
2017-03-25T02:23:08.695Z,0
2017-03-25T02:24:18.707Z,0
2017-03-25T02:25:28.119Z,0
2017-03-25T02:26:38.461Z,0
2017-03-25T02:27:48.481Z,0
2017-03-25T02:28:58.499Z,0
2017-03-25T02:30:08.515Z,0
2017-03-25T02:31:18.837Z,0
2017-03-25T02:32:28.853Z,0
2017-03-25T02:33:38.873Z,0
2017-03-25T02:34:49.203Z,0
2017-03-25T02:35:59.524Z,0
2017-03-25T02:37:09.545Z,0
2017-03-25T02:38:19.885Z,0
2017-03-25T02:39:30.214Z,0
2017-03-25T02:40:39.931Z,0
2017-03-25T02:41:50.267Z,0
2017-03-25T02:43:00.624Z,0
2017-03-25T02:44:10.950Z,0
2017-03-25T02:45:21.306Z,0
2017-03-25T02:46:31.634Z,0
2017-03-25T02:47:41.961Z,0
2017-03-25T02:48:52.297Z,0
2017-03-25T02:50:02.630Z,0
2017-03-25T02:51:12.973Z,0
2017-03-25T02:52:23.330Z,0
2017-03-25T02:53:33.672Z,0
2017-03-25T02:54:44.017Z,0
2017-03-25T02:55:54.042Z,0
2017-03-25T02:57:04.391Z,0
2017-03-25T02:58:14.433Z,0
2017-03-25T02:59:24.775Z,0
2017-03-25T03:00:35.111Z,0
2017-03-25T03:32:15.037Z,0
2017-03-25T03:33:24.123Z,0
2017-03-25T03:34:34.485Z,0
2017-03-25T03:35:44.187Z,0
2017-03-25T03:36:54.527Z,0
2017-03-25T03:38:04.861Z,0
2017-03-25T03:39:14.891Z,0
2017-03-25T03:40:25.252Z,0
2017-03-25T03:41:34.955Z,0
2017-03-25T03:42:45.276Z,0
2017-03-25T03:43:55.294Z,0
2017-03-25T03:45:05.653Z,0
2017-03-25T03:46:15.676Z,0
2017-03-25T03:47:26.013Z,0
2017-03-25T03:48:36.042Z,0
2017-03-25T03:49:46.373Z,0
2017-03-25T03:50:56.718Z,0
2017-03-25T03:52:06.743Z,0
2017-03-25T03:53:17.087Z,0
2017-03-25T03:54:27.102Z,0
2017-03-25T03:55:37.121Z,0
2017-03-25T03:56:47.456Z,0
2017-03-25T03:57:57.173Z,0
2017-03-25T03:59:07.504Z,0
2017-03-25T04:00:17.550Z,0
2017-03-25T04:01:27.913Z,0
2017-03-25T04:02:37.938Z,0
2017-03-25T04:03:48.279Z,0
2017-03-25T04:04:58.623Z,0
2017-03-25T04:06:08.661Z,0
2017-03-25T04:07:18.998Z,0
2017-03-25T04:08:28.718Z,0
2017-03-25T04:09:39.084Z,0
2017-03-25T04:10:49.108Z,0
2017-03-25T04:11:59.439Z,0
2017-03-25T04:13:09.470Z,4
2017-03-25T04:14:19.515Z,4
2017-03-25T04:15:29.885Z,0
2017-03-25T04:16:40.239Z,0
2017-03-25T04:17:50.294Z,4
2017-03-25T04:19:00.630Z,0
2017-03-25T04:20:10.897Z,4
2017-03-25T04:21:20.937Z,0
2017-03-25T04:22:31.267Z,4
2017-03-25T04:23:41.602Z,4
2017-03-25T04:24:51.938Z,8
2017-03-25T04:26:01.964Z,8
2017-03-25T04:27:12.001Z,8
2017-03-25T04:28:22.343Z,12
2017-03-25T04:29:32.677Z,12
2017-03-25T04:30:42.690Z,16
2017-03-25T04:31:53.023Z,20
2017-03-25T04:33:03.060Z,24
2017-03-25T04:34:13.393Z,32
2017-03-25T04:35:23.743Z,36
2017-03-25T04:36:33.762Z,44
2017-03-25T04:37:44.104Z,52
2017-03-25T04:38:54.121Z,60
2017-03-25T04:40:04.157Z,72
2017-03-25T04:41:14.526Z,84
2017-03-25T04:42:24.873Z,92
2017-03-25T04:43:34.897Z,104
2017-03-25T04:44:45.227Z,116
2017-03-25T04:45:54.936Z,132
2017-03-25T04:47:05.272Z,152
2017-03-25T04:48:15.301Z,164
2017-03-25T04:49:25.633Z,188
2017-03-25T04:50:35.652Z,208
2017-03-25T04:51:45.988Z,232
2017-03-25T04:52:56.343Z,260
2017-03-25T04:54:06.373Z,288
2017-03-25T04:55:16.711Z,324
2017-03-25T04:56:26.709Z,356
2017-03-25T04:57:37.025Z,396
2017-03-25T04:58:47.058Z,432
2017-03-25T04:59:57.386Z,476
2017-03-25T05:01:07.717Z,520
2017-03-25T05:02:18.099Z,596
2017-03-25T05:03:28.128Z,668
2017-03-25T05:04:38.165Z,712
2017-03-25T05:05:48.490Z,728
2017-03-25T05:06:58.820Z,808
2017-03-25T05:08:09.159Z,824
2017-03-25T05:09:19.500Z,856
2017-03-25T05:10:29.830Z,876
2017-03-25T05:11:40.167Z,900
2017-03-25T05:12:50.507Z,948
2017-03-25T05:14:00.546Z,992
2017-03-25T05:15:10.576Z,1052
2017-03-25T05:16:20.588Z,1112
2017-03-25T05:17:30.649Z,1156
2017-03-25T05:18:40.979Z,1208
2017-03-25T05:19:51.015Z,1268
2017-03-25T05:21:00.734Z,1320
2017-03-25T05:22:10.757Z,1372
2017-03-25T05:23:20.476Z,1428
2017-03-25T05:24:30.506Z,1484
2017-03-25T05:25:40.856Z,1528
2017-03-25T05:26:51.190Z,1584
2017-03-25T05:28:01.526Z,1668
2017-03-25T05:29:11.860Z,1780
2017-03-25T05:30:22.243Z,1812
2017-03-25T05:31:32.586Z,1824
2017-03-25T05:32:42.913Z,1872
2017-03-25T05:33:53.258Z,1940
2017-03-25T05:35:03.290Z,2028
2017-03-25T05:36:13.643Z,2136
2017-03-25T05:37:23.666Z,2228
2017-03-25T05:38:33.738Z,2276
2017-03-25T05:39:44.124Z,2436
2017-03-25T05:40:54.144Z,2656
2017-03-25T05:42:04.485Z,2644
2017-03-25T05:43:14.829Z,2616
2017-03-25T05:44:25.185Z,2672
2017-03-25T05:45:35.583Z,2804
2017-03-25T05:46:45.926Z,3032
2017-03-25T05:47:56.261Z,3196
2017-03-25T05:49:06.281Z,3196
2017-03-25T05:50:15.983Z,3120
2017-03-25T05:51:26.001Z,3140
2017-03-25T05:52:36.344Z,3284
2017-03-25T05:53:46.682Z,3360
2017-03-25T05:54:56.707Z,3344
2017-03-25T05:56:06.742Z,3348
2017-03-25T05:57:17.076Z,3412
2017-03-25T05:58:27.414Z,3512
2017-03-25T05:59:37.748Z,3620
2017-03-25T06:00:48.131Z,3688
2017-03-25T06:01:58.482Z,3692
2017-03-25T06:03:08.832Z,3652
2017-03-25T06:04:18.859Z,3532
2017-03-25T06:05:29.191Z,3480
2017-03-25T06:06:39.533Z,3500
2017-03-25T06:07:49.862Z,3476
2017-03-25T06:08:59.889Z,3452
2017-03-25T06:10:09.912Z,3388
2017-03-25T06:11:20.264Z,3364
2017-03-25T06:12:30.295Z,3400
2017-03-25T06:13:40.337Z,3384
2017-03-25T06:14:50.662Z,3452
2017-03-25T06:16:00.671Z,3580
2017-03-25T06:17:11.042Z,3736
2017-03-25T06:18:21.380Z,3820
2017-03-25T06:19:31.729Z,3948
2017-03-25T06:20:42.080Z,3948
2017-03-25T06:21:52.088Z,3988
2017-03-25T06:23:02.436Z,4192
2017-03-25T06:24:12.793Z,4284
2017-03-25T06:25:22.807Z,4308
2017-03-25T06:26:33.144Z,4224
2017-03-25T06:27:43.478Z,4080
2017-03-25T06:28:53.802Z,3900
2017-03-25T06:30:04.161Z,3776
2017-03-25T06:31:14.510Z,3672
2017-03-25T06:32:24.859Z,3600
2017-03-25T06:33:35.190Z,3624
2017-03-25T06:34:45.213Z,3576
2017-03-25T06:35:55.554Z,3688
2017-03-25T06:37:05.577Z,3688
2017-03-25T06:38:15.899Z,3676
2017-03-25T06:39:25.939Z,3636
2017-03-25T06:40:36.271Z,3932
2017-03-25T06:41:46.289Z,4048
2017-03-25T06:42:56.613Z,4180
2017-03-25T06:44:06.963Z,4252
2017-03-25T06:45:16.985Z,4216
2017-03-25T06:46:27.002Z,4192
2017-03-25T06:47:37.344Z,4260
2017-03-25T06:48:47.376Z,4240
2017-03-25T06:49:57.766Z,4156
2017-03-25T06:51:07.487Z,4016
2017-03-25T06:52:17.219Z,4016
2017-03-25T06:53:27.237Z,4240
2017-03-25T06:54:37.571Z,4320
2017-03-25T06:55:47.628Z,4316
2017-03-25T06:56:57.662Z,4356
2017-03-25T06:58:08.005Z,4388
2017-03-25T06:59:18.017Z,4372
2017-03-25T07:00:28.427Z,4352
2017-03-25T07:01:38.457Z,4376
2017-03-25T07:02:48.488Z,4384
2017-03-25T07:03:58.821Z,4320
2017-03-25T07:05:08.848Z,4372
2017-03-25T07:06:19.226Z,4468
2017-03-25T07:07:29.586Z,4592
2017-03-25T07:08:39.902Z,4680
2017-03-25T07:09:50.236Z,4720
2017-03-25T07:11:00.265Z,4668
2017-03-25T07:12:10.632Z,4692
2017-03-25T07:13:20.975Z,4792
2017-03-25T07:14:31.321Z,4892
2017-03-25T07:15:41.659Z,4976
2017-03-25T07:16:51.675Z,5040
2017-03-25T07:18:02.023Z,5052
2017-03-25T07:19:11.754Z,5136
2017-03-25T07:20:22.086Z,5208
2017-03-25T07:21:32.431Z,5248
2017-03-25T07:22:42.779Z,5232
2017-03-25T07:23:52.870Z,5272
2017-03-25T07:25:02.916Z,5368
2017-03-25T07:26:12.939Z,5348
2017-03-25T07:27:23.282Z,5372
2017-03-25T07:28:33.627Z,5392
2017-03-25T07:29:43.375Z,5388
2017-03-25T07:30:53.711Z,5440
2017-03-25T07:32:04.072Z,5452
2017-03-25T07:33:14.422Z,5492
2017-03-25T07:34:24.818Z,5580
2017-03-25T07:35:35.196Z,5664
2017-03-25T07:36:45.593Z,5700
2017-03-25T07:37:55.636Z,5732
2017-03-25T07:39:05.670Z,5748
2017-03-25T07:40:16.011Z,5704
2017-03-25T07:41:26.051Z,5748
2017-03-25T07:42:35.774Z,5840
2017-03-25T07:43:46.126Z,5796
2017-03-25T07:44:56.470Z,5800
2017-03-25T07:46:06.498Z,5804
2017-03-25T07:47:16.529Z,5808
2017-03-25T07:48:26.581Z,5792
2017-03-25T07:49:36.925Z,5852
2017-03-25T07:50:46.952Z,5940
2017-03-25T07:51:57.319Z,5992
2017-03-25T07:53:07.344Z,6016
2017-03-25T07:54:17.365Z,6132
2017-03-25T07:55:27.706Z,6184
2017-03-25T07:56:38.052Z,6232
2017-03-25T07:57:48.096Z,6228
2017-03-25T07:58:58.122Z,6288
2017-03-25T08:00:08.473Z,6308
2017-03-25T08:01:18.505Z,6264
2017-03-25T08:02:28.858Z,6324
2017-03-25T08:03:39.198Z,6412
2017-03-25T08:04:49.224Z,6472
2017-03-25T08:05:59.596Z,6520
2017-03-25T08:07:09.959Z,6560
2017-03-25T08:08:19.990Z,6584
2017-03-25T08:09:30.018Z,6600
2017-03-25T08:10:40.345Z,6564
2017-03-25T08:11:50.685Z,6604
2017-03-25T08:13:01.034Z,6568
2017-03-25T08:14:11.366Z,6556
2017-03-25T08:15:21.725Z,6636
2017-03-25T08:16:32.082Z,6612
2017-03-25T08:17:42.115Z,6572
2017-03-25T08:18:52.524Z,6664
2017-03-25T08:20:02.886Z,6752
2017-03-25T08:21:12.613Z,6724
2017-03-25T08:22:22.945Z,6760
2017-03-25T08:23:33.311Z,6736
2017-03-25T08:24:43.034Z,6768
2017-03-25T08:25:53.395Z,6804
2017-03-25T08:27:03.748Z,6896
2017-03-25T08:28:14.109Z,6964
2017-03-25T08:29:23.838Z,7028
2017-03-25T08:30:34.190Z,7052
2017-03-25T08:31:44.539Z,7096
2017-03-25T08:32:54.556Z,7068
2017-03-25T08:34:04.601Z,7148
2017-03-25T08:35:14.646Z,7116
2017-03-25T08:36:25.021Z,7160
2017-03-25T08:37:35.383Z,7156
2017-03-25T08:38:45.711Z,7240
2017-03-25T08:39:55.759Z,7296
2017-03-25T08:41:06.138Z,7292
2017-03-25T08:42:15.876Z,7380
2017-03-25T08:43:26.280Z,7404
2017-03-25T08:44:35.690Z,7476
2017-03-25T08:45:46.062Z,7504
2017-03-25T08:46:56.410Z,7576
2017-03-25T08:48:06.424Z,7340
2017-03-25T08:49:16.855Z,7480
2017-03-25T08:50:27.230Z,7504
2017-03-25T08:51:37.616Z,6720
2017-03-25T08:52:47.660Z,7508
2017-03-25T08:53:58.008Z,6888
2017-03-25T08:55:08.382Z,7076
2017-03-25T08:56:18.410Z,7356
2017-03-25T08:57:28.767Z,7368
2017-03-25T08:58:39.113Z,6772
2017-03-25T08:59:49.481Z,7304
2017-03-25T09:00:59.222Z,7560
2017-03-25T09:02:09.244Z,7740
2017-03-25T09:03:19.636Z,7924
2017-03-25T09:04:29.999Z,7992
2017-03-25T09:05:40.369Z,8084
2017-03-25T09:06:50.719Z,7944
2017-03-25T09:08:01.091Z,8000
2017-03-25T09:09:11.443Z,7836
2017-03-25T09:10:21.781Z,7812
2017-03-25T09:11:31.530Z,7548
2017-03-25T09:12:41.580Z,7840
2017-03-25T09:13:51.625Z,8084
2017-03-25T09:15:01.679Z,8152
2017-03-25T09:16:11.714Z,8044
2017-03-25T09:17:21.766Z,7424
2017-03-25T09:18:31.835Z,7092
2017-03-25T09:19:42.200Z,7968
2017-03-25T09:20:52.563Z,8112
2017-03-25T09:22:02.915Z,8344
2017-03-25T09:23:13.272Z,8416
2017-03-25T09:24:23.694Z,8508
2017-03-25T09:25:34.051Z,8424
2017-03-25T09:26:44.391Z,8456
2017-03-25T09:27:54.463Z,8444
2017-03-25T09:29:04.509Z,8356
2017-03-25T09:30:14.863Z,8316
2017-03-25T09:31:25.250Z,8220
2017-03-25T09:32:35.654Z,7940
2017-03-25T09:33:46.031Z,7992
2017-03-25T09:34:56.092Z,8020
2017-03-25T09:36:06.446Z,8168
2017-03-25T09:37:16.807Z,8472
2017-03-25T09:38:26.869Z,8580
2017-03-25T09:39:36.915Z,8584
2017-03-25T09:40:46.961Z,8688
2017-03-25T09:41:57.327Z,8840
2017-03-25T09:43:07.397Z,8880
2017-03-25T09:44:17.776Z,8884
2017-03-25T09:45:28.163Z,8912
2017-03-25T09:46:38.533Z,8952
2017-03-25T09:47:48.890Z,8968
2017-03-25T09:48:59.267Z,9140
2017-03-25T09:50:09.625Z,9320
2017-03-25T09:51:19.968Z,9420
2017-03-25T09:52:30.332Z,9400
2017-03-25T09:53:40.723Z,9368
2017-03-25T09:54:51.089Z,9408
2017-03-25T09:56:01.447Z,9400
2017-03-25T09:57:11.802Z,8588
2017-03-25T09:58:21.857Z,8616
2017-03-25T09:59:32.206Z,9184
2017-03-25T10:00:42.596Z,8604
2017-03-25T10:01:52.647Z,8844
2017-03-25T10:03:03.235Z,8452
2017-03-25T10:04:13.636Z,8568
2017-03-25T10:05:23.722Z,8812
2017-03-25T10:06:34.094Z,9244
2017-03-25T10:07:44.447Z,8740
2017-03-25T10:08:54.491Z,8760
2017-03-25T10:10:04.850Z,8572
2017-03-25T10:11:15.192Z,8740
2017-03-25T10:12:25.538Z,8972
2017-03-25T10:13:35.879Z,9112
2017-03-25T10:14:46.248Z,9280
2017-03-25T10:15:56.605Z,9528
2017-03-25T10:17:06.963Z,9336
2017-03-25T10:18:16.362Z,9532
2017-03-25T10:19:26.740Z,9332
2017-03-25T10:20:36.786Z,9424
2017-03-25T10:21:47.140Z,9384
2017-03-25T10:22:57.211Z,9452
2017-03-25T10:24:06.999Z,9496
2017-03-25T10:25:17.414Z,9316
2017-03-25T10:26:27.486Z,9264
2017-03-25T10:27:37.548Z,9288
2017-03-25T10:28:47.589Z,9564
2017-03-25T10:29:57.642Z,9372
2017-03-25T10:31:08.005Z,9620
2017-03-25T10:32:18.368Z,9656
2017-03-25T10:33:28.394Z,9960
2017-03-25T10:34:38.763Z,9472
2017-03-25T10:35:48.798Z,10088
2017-03-25T10:36:59.167Z,9756
2017-03-25T10:38:09.220Z,9900
2017-03-25T10:39:19.605Z,10144
2017-03-25T10:40:29.667Z,10244
2017-03-25T10:41:40.034Z,10308
2017-03-25T10:42:50.399Z,10372
2017-03-25T10:44:00.445Z,10336
2017-03-25T10:45:10.470Z,10400
2017-03-25T10:46:20.842Z,10312
2017-03-25T10:47:31.202Z,10412
2017-03-25T10:48:41.238Z,10452
2017-03-25T10:49:51.600Z,10256
2017-03-25T10:51:01.960Z,10124
2017-03-25T10:52:12.338Z,10036
2017-03-25T10:53:22.696Z,10004
2017-03-25T10:54:33.066Z,9980
2017-03-25T10:55:43.146Z,10032
2017-03-25T10:56:53.557Z,9680
2017-03-25T10:58:03.303Z,9408
2017-03-25T10:59:13.372Z,9264
2017-03-25T11:00:23.757Z,9108
2017-03-25T11:01:34.130Z,9024
2017-03-25T11:02:44.192Z,9264
2017-03-25T11:03:54.240Z,9320
2017-03-25T11:05:04.279Z,9252
2017-03-25T11:06:14.655Z,9608
2017-03-25T11:07:25.011Z,9448
2017-03-25T11:08:35.377Z,9620
2017-03-25T11:09:45.745Z,9680
2017-03-25T11:10:56.096Z,9624
2017-03-25T11:12:06.139Z,9588
2017-03-25T11:13:16.507Z,9432
2017-03-25T11:14:26.859Z,9332
2017-03-25T11:15:37.243Z,9252
2017-03-25T11:16:47.610Z,9296
2017-03-25T11:17:57.992Z,9352
2017-03-25T11:19:08.354Z,9380
2017-03-25T11:20:18.701Z,9504
2017-03-25T11:21:29.041Z,9600
2017-03-25T11:22:39.078Z,9744
2017-03-25T11:23:49.470Z,9824
2017-03-25T11:24:59.196Z,9852
2017-03-25T11:26:09.553Z,9896
2017-03-25T11:27:19.593Z,9988
2017-03-25T11:28:29.954Z,10076
2017-03-25T11:29:40.045Z,10124
2017-03-25T11:30:50.114Z,10192
2017-03-25T11:32:00.154Z,10112
2017-03-25T11:33:10.526Z,10168
2017-03-25T11:34:20.266Z,10084
2017-03-25T11:35:30.615Z,10156
2017-03-25T11:36:41.000Z,10224
2017-03-25T11:37:51.598Z,10208
2017-03-25T11:39:01.960Z,10328
2017-03-25T11:40:12.328Z,10440
2017-03-25T11:41:22.367Z,10356
2017-03-25T11:42:32.733Z,10212
2017-03-25T11:43:42.778Z,10132
2017-03-25T11:44:52.843Z,10132
2017-03-25T11:46:02.900Z,10088
2017-03-25T11:47:12.942Z,10052
2017-03-25T11:48:23.316Z,9916
2017-03-25T11:49:33.046Z,9976
2017-03-25T11:50:43.365Z,9932
2017-03-25T11:51:53.708Z,9744
2017-03-25T11:53:04.072Z,9764
2017-03-25T11:54:14.466Z,9772
2017-03-25T11:55:24.831Z,9388
2017-03-25T11:56:35.193Z,9776
2017-03-25T11:57:45.556Z,9784
2017-03-25T11:58:55.954Z,9752
2017-03-25T12:00:06.341Z,9696
2017-03-25T12:01:16.713Z,9640
2017-03-25T12:02:27.077Z,9536
2017-03-25T12:03:37.142Z,9488
2017-03-25T12:04:47.503Z,9568
2017-03-25T12:05:57.533Z,9520
2017-03-25T12:07:07.569Z,9584
2017-03-25T12:08:17.926Z,9544
2017-03-25T12:09:27.979Z,9432
2017-03-25T12:10:37.711Z,9492
2017-03-25T12:11:48.079Z,9572
2017-03-25T12:12:58.428Z,9540
2017-03-25T12:14:08.791Z,9584
2017-03-25T12:15:19.144Z,9788
2017-03-25T12:16:29.513Z,9756
2017-03-25T12:17:39.884Z,9800
2017-03-25T12:18:49.912Z,9804
2017-03-25T12:20:00.327Z,9876
2017-03-25T12:21:10.682Z,9972
2017-03-25T12:22:21.039Z,10032
2017-03-25T12:23:31.434Z,9920
2017-03-25T12:24:41.836Z,10040
2017-03-25T12:25:52.215Z,9972
2017-03-25T12:27:02.578Z,9932
2017-03-25T12:28:12.947Z,10024
2017-03-25T12:29:23.370Z,9984
2017-03-25T12:30:33.727Z,9944
2017-03-25T12:31:44.342Z,9832
2017-03-25T12:32:54.695Z,9936
2017-03-25T12:34:05.056Z,9976
2017-03-25T12:35:15.422Z,10032
2017-03-25T12:36:25.780Z,10124
2017-03-25T12:37:36.182Z,10132
2017-03-25T12:38:46.556Z,10128
2017-03-25T12:39:56.935Z,10124
2017-03-25T12:41:07.318Z,10212
2017-03-25T12:42:17.687Z,10080
2017-03-25T12:43:28.057Z,10048
2017-03-25T12:44:38.407Z,9528
2017-03-25T12:45:48.471Z,9876
2017-03-25T12:46:58.519Z,9644
2017-03-25T12:48:08.888Z,9960
2017-03-25T12:49:19.290Z,10024
2017-03-25T12:50:29.346Z,9584
2017-03-25T12:51:39.380Z,9820
2017-03-25T12:52:49.754Z,9788
2017-03-25T12:53:59.781Z,9908
2017-03-25T12:55:09.818Z,10064
2017-03-25T12:56:19.866Z,9912
2017-03-25T12:57:30.226Z,9856
2017-03-25T12:58:40.579Z,10108
2017-03-25T12:59:50.935Z,10268
2017-03-25T13:01:01.325Z,10508
2017-03-25T13:02:11.691Z,10636
2017-03-25T13:03:22.287Z,10924
2017-03-25T13:04:32.635Z,11004
2017-03-25T13:05:42.360Z,11056
2017-03-25T13:06:52.746Z,11132
2017-03-25T13:08:03.114Z,11048
2017-03-25T13:09:13.470Z,11212
2017-03-25T13:10:23.518Z,11452
2017-03-25T13:11:33.892Z,11304
2017-03-25T13:12:44.257Z,11420
2017-03-25T13:13:54.599Z,11300
2017-03-25T13:15:04.360Z,11568
2017-03-25T13:16:14.689Z,11616
2017-03-25T13:17:25.307Z,11472
2017-03-25T13:18:35.341Z,11352
2017-03-25T13:19:45.751Z,10908
2017-03-25T13:20:56.100Z,11080
2017-03-25T13:22:06.459Z,11224
2017-03-25T13:23:16.863Z,10788
2017-03-25T13:24:27.220Z,10872
2017-03-25T13:25:36.961Z,10744
2017-03-25T13:26:47.355Z,10016
2017-03-25T13:27:57.773Z,10512
2017-03-25T13:29:08.161Z,10400
2017-03-25T13:30:18.198Z,10192
2017-03-25T13:31:28.639Z,9828
2017-03-25T13:32:39.027Z,9796
2017-03-25T13:33:49.409Z,9544
2017-03-25T13:34:59.791Z,9904
2017-03-25T13:36:10.133Z,10164
2017-03-25T13:37:20.485Z,10180
2017-03-25T13:38:30.839Z,9940
2017-03-25T13:39:41.221Z,9712
2017-03-25T13:40:50.943Z,9540
2017-03-25T13:42:01.349Z,9644
2017-03-25T13:43:11.730Z,9560
2017-03-25T13:44:22.134Z,9272
2017-03-25T13:45:32.499Z,8948
2017-03-25T13:46:42.847Z,8704
2017-03-25T13:47:53.195Z,8284
2017-03-25T13:49:03.585Z,8144
2017-03-25T13:50:13.935Z,8044
2017-03-25T13:51:24.289Z,7828
2017-03-25T13:52:34.333Z,7724
2017-03-25T13:53:44.089Z,7712
2017-03-25T13:54:54.446Z,7832
2017-03-25T13:56:04.803Z,7636
2017-03-25T13:57:14.844Z,7320
2017-03-25T13:58:25.209Z,7156
2017-03-25T13:59:35.249Z,7340
2017-03-25T14:00:45.003Z,7176
2017-03-25T14:01:55.608Z,6772
2017-03-25T14:03:05.707Z,6620
2017-03-25T14:04:16.094Z,6552
2017-03-25T14:05:26.482Z,6376
2017-03-25T14:06:37.097Z,6368
2017-03-25T14:07:46.825Z,6308
2017-03-25T14:08:56.910Z,6200
2017-03-25T14:10:07.289Z,6192
2017-03-25T14:11:17.330Z,6228
2017-03-25T14:12:27.710Z,6312
2017-03-25T14:13:37.768Z,6372
2017-03-25T14:14:48.146Z,6296
2017-03-25T14:15:58.198Z,6492
2017-03-25T14:17:08.591Z,6800
2017-03-25T14:18:18.955Z,7268
2017-03-25T14:19:28.716Z,7504
2017-03-25T14:20:38.758Z,7596
2017-03-25T14:21:48.797Z,7664
2017-03-25T14:22:59.150Z,7804
2017-03-25T14:24:09.207Z,7600
2017-03-25T14:25:19.584Z,8020
2017-03-25T14:26:29.964Z,8392
2017-03-25T14:27:40.011Z,8452
2017-03-25T14:28:50.389Z,8628
2017-03-25T14:30:00.144Z,8812
2017-03-25T14:31:10.221Z,8700
2017-03-25T14:32:20.592Z,8340
2017-03-25T14:33:30.930Z,8244
2017-03-25T14:34:41.273Z,8536
2017-03-25T14:35:51.637Z,8344
2017-03-25T14:37:02.010Z,8124
2017-03-25T14:38:12.042Z,7656
2017-03-25T14:39:22.082Z,7384
2017-03-25T14:40:32.139Z,7380
2017-03-25T14:41:42.489Z,6936
2017-03-25T14:42:52.543Z,6764
2017-03-25T14:44:02.912Z,6708
2017-03-25T14:45:13.271Z,6848
2017-03-25T14:46:23.627Z,6856
2017-03-25T14:47:33.982Z,6508
2017-03-25T14:48:44.117Z,6252
2017-03-25T14:49:53.872Z,6320
2017-03-25T14:51:04.221Z,5656
2017-03-25T14:52:14.630Z,5516
2017-03-25T14:53:24.385Z,5472
2017-03-25T14:54:34.793Z,5404
2017-03-25T14:55:45.179Z,5420
2017-03-25T14:56:55.245Z,5408
2017-03-25T14:58:05.289Z,5448
2017-03-25T14:59:15.651Z,5372
2017-03-25T15:00:25.399Z,5264
2017-03-25T15:01:35.772Z,5408
2017-03-25T15:02:46.165Z,5540
2017-03-25T15:03:56.500Z,5432
2017-03-25T15:05:06.896Z,5196
2017-03-25T15:06:17.274Z,5024
2017-03-25T15:07:27.629Z,4992
2017-03-25T15:08:38.000Z,5068
2017-03-25T15:09:48.368Z,5028
2017-03-25T15:10:58.959Z,5016
2017-03-25T15:12:09.325Z,5004
2017-03-25T15:13:19.684Z,5084
2017-03-25T15:14:30.064Z,5036
2017-03-25T15:15:40.132Z,4988
2017-03-25T15:16:50.503Z,5044
2017-03-25T15:18:00.558Z,5072
2017-03-25T15:19:10.289Z,5024
2017-03-25T15:20:20.679Z,4960
2017-03-25T15:21:30.402Z,4980
2017-03-25T15:22:40.767Z,5028
2017-03-25T15:23:51.120Z,4996
2017-03-25T15:25:01.475Z,5044
2017-03-25T15:26:11.527Z,5104
2017-03-25T15:27:21.920Z,5160
2017-03-25T15:28:32.291Z,5264
2017-03-25T15:29:42.350Z,5172
2017-03-25T15:30:51.784Z,5080
2017-03-25T15:32:02.139Z,5012
2017-03-25T15:33:12.484Z,4944
2017-03-25T15:34:22.211Z,4792
2017-03-25T15:35:32.565Z,4720
2017-03-25T15:36:42.927Z,4760
2017-03-25T15:37:53.306Z,4752
2017-03-25T15:39:03.355Z,4600
2017-03-25T15:40:13.399Z,4468
2017-03-25T15:41:23.776Z,4288
2017-03-25T15:42:34.135Z,4208
2017-03-25T15:43:44.495Z,4068
2017-03-25T15:44:54.905Z,3916
2017-03-25T15:46:05.255Z,3772
2017-03-25T15:47:15.632Z,3620
2017-03-25T15:48:26.011Z,3480
2017-03-25T15:49:36.411Z,3308
2017-03-25T15:50:46.772Z,3208
2017-03-25T15:51:57.133Z,3104
2017-03-25T15:53:07.516Z,3008
2017-03-25T15:54:17.300Z,2928
2017-03-25T15:55:27.757Z,2872
2017-03-25T15:56:38.118Z,2804
2017-03-25T15:57:48.473Z,2752
2017-03-25T15:58:58.222Z,2700
2017-03-25T16:00:08.276Z,2636
2017-03-25T16:01:18.639Z,2572
2017-03-25T16:02:28.674Z,2500
2017-03-25T16:03:38.764Z,2420
2017-03-25T16:04:48.827Z,2340
2017-03-25T16:05:59.177Z,2276
2017-03-25T16:07:09.570Z,2204
2017-03-25T16:08:19.933Z,2140
2017-03-25T16:09:30.291Z,2084
2017-03-25T16:10:40.674Z,2032
2017-03-25T16:11:51.024Z,1984
2017-03-25T16:13:00.769Z,1932
2017-03-25T16:14:11.162Z,1880
2017-03-25T16:15:21.776Z,1820
2017-03-25T16:16:31.817Z,1768
2017-03-25T16:17:42.186Z,1712
2017-03-25T16:18:52.560Z,1656
2017-03-25T16:20:02.317Z,1604
2017-03-25T16:21:12.716Z,1548
2017-03-25T16:22:23.070Z,1500
2017-03-25T16:23:33.435Z,1456
2017-03-25T16:24:43.828Z,1412
2017-03-25T16:25:54.191Z,1368
2017-03-25T16:27:04.234Z,1332
2017-03-25T16:28:14.612Z,1288